Time;durP1;ratioP1;P1;durP2;ratioP2;P2;SDS_P1;SDS_P2;PMS_P1;PMS_P2;Temp;Humidity;BMP_temperature;BMP_pressure;BME280_temperature;BME280_humidity;BME280_pressure;Samples;Min_cycle;Max_cycle;Signal;HPM_P1;HPM_P2
2023/04/16 00:02:15;;;;;;;;;;;;;;;6.47;100.00;98363.59;4470622;32;20032;-65
2023/04/16 00:04:43;;;;;;;;;;;;;;;6.32;100.00;98350.00;4470921;32;20036;-65
2023/04/16 00:07:10;;;;;;;;;;;;;;;6.16;100.00;98368.59;4470620;32;20325;-65
2023/04/16 00:09:38;;;;;;;;;;;;;;;6.14;100.00;98362.69;4470636;32;20037;-65
2023/04/16 00:12:05;;;;;;;;;;;;;;;6.20;100.00;98357.00;4470573;32;20003;-66
2023/04/16 00:14:32;;;;;;;;;;;;;;;6.25;100.00;98358.41;4470275;32;19999;-65
2023/04/16 00:17:00;;;;;;;;;;;;;;;6.23;100.00;98355.94;4470592;32;19988;-66
2023/04/16 00:19:27;;;;;;;;;;;;;;;6.20;100.00;98364.81;4470417;32;19999;-65
2023/04/16 00:21:55;;;;;;;;;;;;;;;6.18;100.00;98356.31;4470568;32;20059;-65
2023/04/16 00:24:22;;;;;;;;;;;;;;;6.09;100.00;98359.63;4470539;32;19988;-66
2023/04/16 00:26:49;;;;;;;;;;;;;;;6.05;100.00;98358.19;4470422;32;19980;-65
2023/04/16 00:29:17;;;;;;;;;;;;;;;6.07;100.00;98356.31;4470409;32;20364;-66
2023/04/16 00:31:45;;;;;;;;;;;;;;;6.14;100.00;98362.69;4470301;32;19980;-66
2023/04/16 00:34:12;;;;;;;;;;;;;;;6.10;100.00;98361.28;4470470;32;19990;-65
2023/04/16 00:36:40;;;;;;;;;;;;;;;6.15;100.00;98353.13;4470611;32;20361;-65
2023/04/16 00:39:07;;;;;;;;;;;;;;;6.06;100.00;98366.81;4470516;32;20429;-65
2023/04/16 00:41:36;;;;;;;;;;;;;;;6.01;100.00;98362.81;4470461;32;19994;-65
2023/04/16 00:44:03;;;;;;;;;;;;;;;6.05;100.00;98363.41;4470136;32;20357;-66
2023/04/16 00:46:30;;;;;;;;;;;;;;;6.03;100.00;98370.50;4470376;32;20314;-66
2023/04/16 00:48:59;;;;;;;;;;;;;;;6.07;100.00;98364.13;4469022;32;20005;-65
2023/04/16 00:51:26;;;;;;;;;;;;;;;6.02;100.00;98358.44;4470393;32;19998;-65
2023/04/16 00:53:54;;;;;;;;;;;;;;;5.95;100.00;98365.00;4468973;32;20040;-65
2023/04/16 00:56:22;;;;;;;;;;;;;;;5.79;100.00;98357.56;4470324;32;20007;-66
2023/04/16 00:58:50;;;;;;;;;;;;;;;5.74;100.00;98362.28;4469029;32;20051;-66
2023/04/16 01:01:17;;;;;;;;;;;;;;;5.81;100.00;98363.47;4470260;32;20067;-65
2023/04/16 01:03:45;;;;;;;;;;;;;;;5.78;100.00;98367.12;4470192;32;19972;-65
2023/04/16 01:06:13;;;;;;;;;;;;;;;5.76;100.00;98363.00;4470083;32;20029;-65
2023/04/16 01:08:40;;;;;;;;;;;;;;;5.85;100.00;98373.50;4468763;32;20003;-65
2023/04/16 01:11:13;;;;;;;;;;;;;;;5.89;100.00;98373.28;4470055;32;19980;-65
2023/04/16 01:13:40;;;;;;;;;;;;;;;5.83;100.00;98372.81;4469958;32;20082;-65
2023/04/16 01:16:09;;;;;;;;;;;;;;;5.93;100.00;98374.72;4454571;32;20011;-65
2023/04/16 01:18:37;;;;;;;;;;;;;;;5.92;100.00;98373.91;4454545;32;19976;-65
2023/04/16 01:21:04;;;;;;;;;;;;;;;5.98;100.00;98377.81;4454445;32;19989;-65
2023/04/16 01:23:32;;;;;;;;;;;;;;;6.00;100.00;98371.56;4454570;32;19976;-65
2023/04/16 01:25:59;;;;;;;;;;;;;;;6.08;100.00;98373.56;4454604;32;19973;-65
2023/04/16 01:28:27;;;;;;;;;;;;;;;6.13;100.00;98376.66;4454334;32;19981;-65
2023/04/16 01:30:54;;;;;;;;;;;;;;;6.06;100.00;98375.47;4454501;32;20372;-65
2023/04/16 01:33:22;;;;;;;;;;;;;;;6.06;100.00;98379.81;4454638;32;19984;-65
2023/04/16 01:35:50;;;;;;;;;;;;;;;6.08;100.00;98372.75;4454379;32;20383;-65
2023/04/16 01:38:17;;;;;;;;;;;;;;;6.08;100.00;98370.97;4454381;32;20026;-65
2023/04/16 01:40:45;;;;;;;;;;;;;;;6.18;100.00;98373.69;4454381;32;20002;-65
2023/04/16 01:43:12;;;;;;;;;;;;;;;6.33;100.00;98362.09;4454274;32;19980;-65
2023/04/16 01:45:40;;;;;;;;;;;;;;;6.22;100.00;98370.72;4454284;32;19972;-65
2023/04/16 01:48:08;;;;;;;;;;;;;;;6.18;100.00;98369.31;4454221;32;19996;-65
2023/04/16 01:50:35;;;;;;;;;;;;;;;6.26;100.00;98367.88;4454497;32;20018;-65
2023/04/16 01:53:03;;;;;;;;;;;;;;;6.25;100.00;98369.66;4454216;32;19977;-65
2023/04/16 01:55:35;;;;;;;;;;;;;;;6.28;100.00;98364.19;4454215;32;19982;-65
2023/04/16 01:58:02;;;;;;;;;;;;;;;6.39;100.00;98372.00;4454260;32;20040;-65
2023/04/16 02:00:31;;;;;;;;;;;;;;;6.41;100.00;98379.69;4454009;32;20015;-65
2023/04/16 02:02:59;;;;;;;;;;;;;;;6.45;100.00;98372.47;4452908;32;20029;-65
2023/04/16 02:05:27;;;;;;;;;;;;;;;6.36;100.00;98372.25;4454380;32;20314;-65
2023/04/16 02:07:54;;;;;;;;;;;;;;;6.46;100.00;98372.34;4454247;32;19992;-65
2023/04/16 02:10:22;;;;;;;;;;;;;;;6.41;100.00;98373.66;4454461;32;20019;-65
2023/04/16 02:12:50;;;;;;;;;;;;;;;6.46;100.00;98369.75;4466670;32;20036;-65
2023/04/16 02:15:17;;;;;;;;;;;;;;;6.47;100.00;98376.59;4469547;32;20056;-65
2023/04/16 02:17:45;;;;;;;;;;;;;;;6.52;100.00;98382.25;4469896;32;20343;-65
2023/04/16 02:20:13;;;;;;;;;;;;;;;6.56;100.00;98388.06;4469690;32;19975;-65
2023/04/16 02:22:42;;;;;;;;;;;;;;;6.52;100.00;98386.66;4469975;32;20024;-65
2023/04/16 02:25:10;;;;;;;;;;;;;;;6.59;100.00;98394.81;4469735;32;19972;-65
2023/04/16 02:27:37;;;;;;;;;;;;;;;6.53;100.00;98394.34;4469744;32;19973;-65
2023/04/16 02:30:06;;;;;;;;;;;;;;;6.51;100.00;98392.78;4469656;32;19976;-65
2023/04/16 02:32:33;;;;;;;;;;;;;;;6.49;100.00;98389.50;4469301;32;19976;-65
2023/04/16 02:35:02;;;;;;;;;;;;;;;6.49;100.00;98392.91;4469742;32;20032;-65
2023/04/16 02:37:30;;;;;;;;;;;;;;;6.50;100.00;98393.75;4469339;32;19988;-66
2023/04/16 02:39:57;;;;;;;;;;;;;;;6.32;100.00;98396.84;4469464;32;19980;-65
2023/04/16 02:42:25;;;;;;;;;;;;;;;6.35;100.00;98401.00;4469660;32;19995;-65
2023/04/16 02:44:52;;;;;;;;;;;;;;;6.42;100.00;98391.75;4469531;32;20005;-65
2023/04/16 02:47:20;;;;;;;;;;;;;;;6.33;100.00;98392.50;4469214;32;20314;-65
2023/04/16 02:49:47;;;;;;;;;;;;;;;6.28;100.00;98399.81;4469198;32;20349;-65
2023/04/16 02:52:15;;;;;;;;;;;;;;;6.29;100.00;98398.88;4469408;32;20389;-66
2023/04/16 02:54:42;;;;;;;;;;;;;;;6.29;100.00;98399.69;4469111;32;19980;-65
2023/04/16 02:57:10;;;;;;;;;;;;;;;6.25;100.00;98405.25;4469249;32;20015;-65
2023/04/16 02:59:37;;;;;;;;;;;;;;;6.20;100.00;98403.00;4469456;32;19984;-65
2023/04/16 03:02:04;;;;;;;;;;;;;;;6.13;100.00;98407.00;4469262;32;20121;-65
2023/04/16 03:04:32;;;;;;;;;;;;;;;6.03;100.00;98402.53;4467967;32;19981;-65
2023/04/16 03:06:59;;;;;;;;;;;;;;;6.01;100.00;98401.81;4469009;32;20388;-65
2023/04/16 03:09:27;;;;;;;;;;;;;;;5.94;100.00;98407.56;4468986;32;19996;-65
2023/04/16 03:11:55;;;;;;;;;;;;;;;5.96;100.00;98405.69;4469721;32;19980;-65
2023/04/16 03:14:22;;;;;;;;;;;;;;;5.92;100.00;98406.84;4470541;32;20028;-65
2023/04/16 03:16:50;;;;;;;;;;;;;;;5.97;100.00;98407.37;4470953;32;20286;-65
2023/04/16 03:19:17;;;;;;;;;;;;;;;5.97;100.00;98399.56;4470988;32;19989;-65
2023/04/16 03:21:44;;;;;;;;;;;;;;;5.85;100.00;98399.50;4470846;32;19988;-65
2023/04/16 03:24:12;;;;;;;;;;;;;;;5.86;100.00;98398.56;4470937;32;20328;-65
2023/04/16 03:26:40;;;;;;;;;;;;;;;5.83;100.00;98406.59;4470844;32;19987;-65
2023/04/16 03:29:08;;;;;;;;;;;;;;;5.89;100.00;98413.13;4471005;32;20003;-66
2023/04/16 03:31:35;;;;;;;;;;;;;;;5.82;100.00;98422.31;4470962;32;19980;-65
2023/04/16 03:34:03;;;;;;;;;;;;;;;5.85;100.00;98433.31;4470956;32;19972;-65
2023/04/16 03:36:31;;;;;;;;;;;;;;;5.80;100.00;98427.62;4470867;32;20052;-65
2023/04/16 03:38:58;;;;;;;;;;;;;;;5.81;100.00;98433.66;4470782;32;19972;-65
2023/04/16 03:41:26;;;;;;;;;;;;;;;5.93;100.00;98442.31;4471010;32;20456;-65
2023/04/16 03:43:53;;;;;;;;;;;;;;;5.93;100.00;98439.72;4470916;32;20094;-65
2023/04/16 03:46:21;;;;;;;;;;;;;;;5.86;100.00;98444.56;4471010;32;20323;-65
2023/04/16 03:48:48;;;;;;;;;;;;;;;5.89;100.00;98448.66;4470595;32;19996;-65
2023/04/16 03:51:16;;;;;;;;;;;;;;;6.02;100.00;98457.25;4470866;32;20059;-65
2023/04/16 03:53:43;;;;;;;;;;;;;;;6.01;100.00;98455.56;4470664;32;19980;-65
2023/04/16 03:56:12;;;;;;;;;;;;;;;6.04;100.00;98453.59;4470986;32;19980;-65
2023/04/16 03:58:39;;;;;;;;;;;;;;;6.04;100.00;98460.53;4470588;32;19994;-65
2023/04/16 04:01:07;;;;;;;;;;;;;;;6.01;100.00;98456.44;4470603;32;20028;-65
2023/04/16 04:03:36;;;;;;;;;;;;;;;6.06;100.00;98452.63;4470608;32;20029;-65
2023/04/16 04:06:07;;;;;;;;;;;;;;;6.08;100.00;98455.97;4470795;32;19977;-65
2023/04/16 04:08:35;;;;;;;;;;;;;;;6.16;100.00;98459.63;4470976;32;19980;-65
2023/04/16 04:11:02;;;;;;;;;;;;;;;6.18;100.00;98455.13;4470779;32;19991;-65
2023/04/16 04:13:30;;;;;;;;;;;;;;;6.17;100.00;98453.47;4470463;32;19980;-65
2023/04/16 04:15:57;;;;;;;;;;;;;;;6.29;100.00;98441.31;4469826;32;20348;-65
2023/04/16 04:18:25;;;;;;;;;;;;;;;6.34;100.00;98451.34;4470035;32;20019;-65
2023/04/16 04:20:53;;;;;;;;;;;;;;;6.46;100.00;98465.19;4470114;32;19995;-65
2023/04/16 04:23:22;;;;;;;;;;;;;;;6.47;100.00;98472.06;4469606;32;20327;-65
2023/04/16 04:25:49;;;;;;;;;;;;;;;6.48;100.00;98477.16;4469713;32;20374;-65
2023/04/16 04:28:17;;;;;;;;;;;;;;;6.51;100.00;98476.91;4469718;32;19979;-65
2023/04/16 04:30:44;;;;;;;;;;;;;;;6.49;100.00;98480.56;4469539;32;20475;-65
2023/04/16 04:33:12;;;;;;;;;;;;;;;6.45;100.00;98484.34;4469901;32;20314;-66
2023/04/16 04:35:39;;;;;;;;;;;;;;;6.50;100.00;98488.25;4469483;32;20410;-65
2023/04/16 04:38:07;;;;;;;;;;;;;;;6.47;100.00;98482.47;4469718;32;20003;-65
2023/04/16 04:40:34;;;;;;;;;;;;;;;6.45;100.00;98484.34;4469532;32;20364;-65
2023/04/16 04:43:02;;;;;;;;;;;;;;;6.63;100.00;98482.94;4469453;32;19968;-65
2023/04/16 04:45:30;;;;;;;;;;;;;;;6.69;100.00;98482.47;4469799;32;20011;-65
2023/04/16 04:47:58;;;;;;;;;;;;;;;6.71;100.00;98484.97;4469814;32;19998;-65
2023/04/16 04:50:26;;;;;;;;;;;;;;;6.69;100.00;98484.22;4467962;32;19998;-65
2023/04/16 04:52:53;;;;;;;;;;;;;;;6.71;100.00;98482.34;4469471;32;20298;-65
2023/04/16 04:55:21;;;;;;;;;;;;;;;6.75;100.00;98481.16;4469616;32;19980;-65
2023/04/16 04:57:49;;;;;;;;;;;;;;;6.87;100.00;98490.63;4469707;32;20509;-65
2023/04/16 05:00:17;;;;;;;;;;;;;;;6.89;100.00;98486.09;4469654;32;20336;-65
2023/04/16 05:02:46;;;;;;;;;;;;;;;7.00;100.00;98492.25;4469327;32;19976;-65
2023/04/16 05:05:13;;;;;;;;;;;;;;;6.98;100.00;98481.97;4469372;32;20003;-65
2023/04/16 05:07:41;;;;;;;;;;;;;;;6.91;100.00;98489.41;4469178;32;20032;-65
2023/04/16 05:10:08;;;;;;;;;;;;;;;7.00;100.00;98489.66;4469257;32;20463;-65
2023/04/16 05:12:35;;;;;;;;;;;;;;;6.96;100.00;98490.84;4469146;32;20034;-65
2023/04/16 05:15:03;;;;;;;;;;;;;;;6.96;100.00;98483.03;4467575;32;80308;-65
2023/04/16 05:17:30;;;;;;;;;;;;;;;7.05;100.00;98495.31;4470533;32;19999;-65
2023/04/16 05:19:57;;;;;;;;;;;;;;;7.13;100.00;98498.16;4470149;32;20250;-65
2023/04/16 05:22:25;;;;;;;;;;;;;;;7.22;100.00;98493.97;4470400;32;20078;-66
2023/04/16 05:24:52;;;;;;;;;;;;;;;7.16;100.00;98497.06;4470166;32;19976;-65
2023/04/16 05:27:19;;;;;;;;;;;;;;;7.04;100.00;98507.53;4470057;32;20360;-65
2023/04/16 05:29:47;;;;;;;;;;;;;;;7.13;100.00;98500.75;4470111;32;20009;-65
2023/04/16 05:32:14;;;;;;;;;;;;;;;7.25;100.00;98505.00;4469937;32;19972;-65
2023/04/16 05:34:41;;;;;;;;;;;;;;;7.17;100.00;98499.53;4469277;32;20047;-65
2023/04/16 05:37:09;;;;;;;;;;;;;;;7.14;100.00;98507.59;4470183;32;20000;-65
2023/04/16 05:39:36;;;;;;;;;;;;;;;7.32;100.00;98509.72;4469993;32;20043;-65
2023/04/16 05:42:03;;;;;;;;;;;;;;;7.34;100.00;98513.00;4469947;32;19985;-65
2023/04/16 05:44:31;;;;;;;;;;;;;;;7.41;100.00;98499.34;4469929;32;20360;-65
2023/04/16 05:46:58;;;;;;;;;;;;;;;7.50;100.00;98492.59;4469984;32;20004;-65
2023/04/16 05:49:25;;;;;;;;;;;;;;;7.57;100.00;98503.31;4468602;32;20051;-65
2023/04/16 05:51:53;;;;;;;;;;;;;;;7.61;100.00;98502.94;4469839;32;20428;-65
2023/04/16 05:54:20;;;;;;;;;;;;;;;7.64;100.00;98504.50;4469932;32;19988;-65
2023/04/16 05:56:47;;;;;;;;;;;;;;;7.74;100.00;98509.78;4469908;32;20084;-65
2023/04/16 05:59:15;;;;;;;;;;;;;;;7.78;100.00;98511.19;4469829;32;19976;-65
2023/04/16 06:01:42;;;;;;;;;;;;;;;7.86;100.00;98514.00;4469783;32;19963;-65
2023/04/16 06:04:09;;;;;;;;;;;;;;;7.88;100.00;98512.09;4469492;32;20552;-65
2023/04/16 06:06:37;;;;;;;;;;;;;;;7.84;100.00;98509.84;4470056;32;19995;-65
2023/04/16 06:09:04;;;;;;;;;;;;;;;8.02;100.00;98515.34;4469722;32;19997;-65
2023/04/16 06:11:32;;;;;;;;;;;;;;;8.11;100.00;98533.66;4469618;32;19991;-65
2023/04/16 06:14:02;;;;;;;;;;;;;;;8.07;100.00;98531.44;4468409;32;19979;-65
2023/04/16 06:16:29;;;;;;;;;;;;;;;8.15;100.00;98529.84;4469818;32;19996;-65
2023/04/16 06:18:57;;;;;;;;;;;;;;;8.15;100.00;98532.44;4469704;32;20326;-65
2023/04/16 06:21:25;;;;;;;;;;;;;;;8.18;100.00;98523.56;4469913;32;20044;-65
2023/04/16 06:23:53;;;;;;;;;;;;;;;8.19;100.00;98525.22;4469609;32;20003;-65
2023/04/16 06:26:21;;;;;;;;;;;;;;;8.23;100.00;98521.38;4469772;32;20004;-65
2023/04/16 06:28:48;;;;;;;;;;;;;;;8.40;100.00;98526.97;4469571;32;19995;-66
2023/04/16 06:31:15;;;;;;;;;;;;;;;8.52;100.00;98531.19;4469278;32;19990;-65
2023/04/16 06:33:43;;;;;;;;;;;;;;;8.59;100.00;98532.31;4469682;32;19988;-66
2023/04/16 06:36:11;;;;;;;;;;;;;;;8.73;100.00;98538.16;4469429;32;19976;-66
2023/04/16 06:38:38;;;;;;;;;;;;;;;9.02;100.00;98535.63;4469792;32;20060;-66
2023/04/16 06:41:05;;;;;;;;;;;;;;;9.07;100.00;98525.62;4469427;32;19988;-66
2023/04/16 06:43:33;;;;;;;;;;;;;;;9.14;100.00;98531.13;4469387;32;20000;-66
2023/04/16 06:46:00;;;;;;;;;;;;;;;9.26;100.00;98531.84;4469611;32;19980;-65
2023/04/16 06:48:28;;;;;;;;;;;;;;;9.43;100.00;98536.41;4469296;32;19976;-66
2023/04/16 06:50:56;;;;;;;;;;;;;;;9.62;100.00;98535.63;4469574;32;20035;-66
2023/04/16 06:53:23;;;;;;;;;;;;;;;9.79;100.00;98530.66;4469112;32;20334;-66
2023/04/16 06:55:50;;;;;;;;;;;;;;;10.13;100.00;98533.69;4469346;32;20074;-66
2023/04/16 06:58:17;;;;;;;;;;;;;;;10.17;100.00;98539.44;4469191;32;19994;-66
2023/04/16 07:00:45;;;;;;;;;;;;;;;10.17;100.00;98536.84;4469225;32;19976;-65
2023/04/16 07:03:13;;;;;;;;;;;;;;;10.33;100.00;98539.72;4469155;32;20018;-66
2023/04/16 07:05:40;;;;;;;;;;;;;;;10.50;100.00;98535.53;4469200;32;20048;-66
2023/04/16 07:08:07;;;;;;;;;;;;;;;10.72;100.00;98533.53;4469114;32;20030;-66
2023/04/16 07:10:35;;;;;;;;;;;;;;;10.71;100.00;98539.75;4469152;32;19968;-66
2023/04/16 07:13:02;;;;;;;;;;;;;;;10.61;100.00;98543.25;4468768;32;20457;-65
2023/04/16 07:15:29;;;;;;;;;;;;;;;10.49;100.00;98544.38;4468805;32;19992;-66
2023/04/16 07:17:57;;;;;;;;;;;;;;;10.49;100.00;98541.75;4468983;32;20031;-66
2023/04/16 07:20:24;;;;;;;;;;;;;;;10.56;100.00;98549.88;4469101;32;19986;-66
2023/04/16 07:22:52;;;;;;;;;;;;;;;10.48;100.00;98546.16;4468972;32;19971;-66
2023/04/16 07:25:19;;;;;;;;;;;;;;;10.78;100.00;98539.03;4468617;32;19980;-66
2023/04/16 07:27:46;;;;;;;;;;;;;;;11.21;100.00;98541.19;4468894;32;20054;-66
2023/04/16 07:30:14;;;;;;;;;;;;;;;11.41;100.00;98545.34;4468538;32;20803;-66
2023/04/16 07:32:42;;;;;;;;;;;;;;;11.28;100.00;98542.22;4467418;32;20349;-66
2023/04/16 07:35:09;;;;;;;;;;;;;;;11.42;100.00;98540.94;4468660;32;19984;-66
2023/04/16 07:37:37;;;;;;;;;;;;;;;11.80;100.00;98542.44;4468620;32;19980;-66
2023/04/16 07:40:05;;;;;;;;;;;;;;;11.64;100.00;98545.75;4468635;32;19988;-66
2023/04/16 07:42:32;;;;;;;;;;;;;;;11.70;100.00;98533.81;4468457;32;19973;-66
2023/04/16 07:44:59;;;;;;;;;;;;;;;11.74;100.00;98535.16;4468319;32;19983;-66
2023/04/16 07:47:27;;;;;;;;;;;;;;;11.93;100.00;98538.63;4468681;32;19968;-66
2023/04/16 07:49:54;;;;;;;;;;;;;;;11.74;100.00;98545.66;4468457;32;19968;-66
2023/04/16 07:52:23;;;;;;;;;;;;;;;11.59;100.00;98547.97;4468499;32;20667;-66
2023/04/16 07:54:50;;;;;;;;;;;;;;;11.88;100.00;98541.69;4468649;32;20322;-66
2023/04/16 07:57:18;;;;;;;;;;;;;;;12.12;100.00;98548.16;4468429;32;19981;-66
2023/04/16 07:59:45;;;;;;;;;;;;;;;11.96;100.00;98540.94;4470695;32;19983;-66
2023/04/16 08:02:13;;;;;;;;;;;;;;;11.86;100.00;98538.37;4470594;32;20351;-66
2023/04/16 08:04:41;;;;;;;;;;;;;;;11.84;100.00;98551.66;4470479;32;19980;-66
2023/04/16 08:07:09;;;;;;;;;;;;;;;12.21;100.00;98555.91;4470466;32;19984;-66
2023/04/16 08:09:36;;;;;;;;;;;;;;;11.82;100.00;98556.22;4470549;32;20007;-66
2023/04/16 08:12:04;;;;;;;;;;;;;;;12.11;100.00;98555.19;4469091;32;20131;-66
2023/04/16 08:14:31;;;;;;;;;;;;;;;12.23;100.00;98558.41;4470549;32;20331;-66
2023/04/16 08:16:59;;;;;;;;;;;;;;;12.30;100.00;98564.69;4470524;32;19998;-66
2023/04/16 08:19:26;;;;;;;;;;;;;;;12.35;100.00;98567.66;4470503;32;20043;-66
2023/04/16 08:21:54;;;;;;;;;;;;;;;12.20;100.00;98566.59;4470453;32;20047;-66
2023/04/16 08:24:21;;;;;;;;;;;;;;;12.36;100.00;98563.25;4470441;32;20468;-66
2023/04/16 08:26:49;;;;;;;;;;;;;;;12.47;100.00;98563.00;4470483;32;19976;-66
2023/04/16 08:29:16;;;;;;;;;;;;;;;12.56;100.00;98561.25;4470465;32;20333;-66
2023/04/16 08:31:43;;;;;;;;;;;;;;;12.66;100.00;98561.97;4470042;32;19980;-66
2023/04/16 08:34:12;;;;;;;;;;;;;;;12.55;100.00;98568.31;4470498;32;20484;-66
2023/04/16 08:36:39;;;;;;;;;;;;;;;12.68;100.00;98569.72;4470274;32;19990;-66
2023/04/16 08:39:06;;;;;;;;;;;;;;;12.43;100.00;98566.94;4470710;32;19996;-66
2023/04/16 08:41:35;;;;;;;;;;;;;;;12.85;100.00;98570.63;4470289;32;19984;-66
2023/04/16 08:44:10;;;;;;;;;;;;;;;13.09;100.00;98577.78;4470241;32;20052;-66
2023/04/16 08:46:38;;;;;;;;;;;;;;;13.17;100.00;98574.38;4470313;32;19972;-66
2023/04/16 08:49:06;;;;;;;;;;;;;;;13.46;100.00;98569.56;4469500;32;20044;-66
2023/04/16 08:51:34;;;;;;;;;;;;;;;13.46;100.00;98589.81;4470449;32;19994;-66
2023/04/16 08:54:03;;;;;;;;;;;;;;;13.63;100.00;98586.22;4470302;32;19987;-66
2023/04/16 08:56:30;;;;;;;;;;;;;;;13.50;100.00;98588.50;4470197;32;20060;-66
2023/04/16 08:59:00;;;;;;;;;;;;;;;13.50;100.00;98588.50;4470542;32;20316;-66
2023/04/16 09:01:28;;;;;;;;;;;;;;;13.78;100.00;98586.41;4470302;32;20348;-66
2023/04/16 09:03:55;;;;;;;;;;;;;;;13.88;99.95;98594.16;4470246;32;20032;-66
2023/04/16 09:06:23;;;;;;;;;;;;;;;14.51;97.90;98597.97;4470090;32;20009;-66
2023/04/16 09:08:51;;;;;;;;;;;;;;;14.54;95.45;98594.16;4469695;32;20404;-66
2023/04/16 09:11:18;;;;;;;;;;;;;;;14.74;92.96;98599.94;4468169;32;19989;-66
2023/04/16 09:13:46;;;;;;;;;;;;;;;15.18;91.40;98603.94;4469844;32;19988;-66
2023/04/16 09:16:14;;;;;;;;;;;;;;;15.18;95.67;98607.38;4470146;32;20054;-66
2023/04/16 09:18:41;;;;;;;;;;;;;;;14.88;90.36;98614.25;4470127;32;20326;-66
2023/04/16 09:21:12;;;;;;;;;;;;;;;14.94;92.03;98605.66;4469111;32;20003;-66
2023/04/16 09:23:39;;;;;;;;;;;;;;;15.03;92.23;98614.37;4470121;32;19979;-66
2023/04/16 09:26:07;;;;;;;;;;;;;;;15.28;93.11;98604.56;4470014;32;19994;-66
2023/04/16 09:28:41;;;;;;;;;;;;;;;15.41;87.13;98609.28;4470181;32;19988;-66
2023/04/16 09:31:10;;;;;;;;;;;;;;;15.44;83.99;98611.56;4469948;32;20004;-66
2023/04/16 09:33:37;;;;;;;;;;;;;;;15.62;83.47;98608.69;4469998;32;20033;-66
2023/04/16 09:36:05;;;;;;;;;;;;;;;15.33;84.09;98614.59;4469993;32;19976;-66
2023/04/16 09:38:49;;;;;;;;;;;;;;;15.50;88.46;98615.34;4470097;32;19986;-66
2023/04/16 09:41:16;;;;;;;;;;;;;;;15.29;82.75;98619.41;4469981;32;20006;-66
2023/04/16 09:43:55;;;;;;;;;;;;;;;15.47;81.61;98613.06;4469884;32;20342;-66
2023/04/16 09:46:23;;;;;;;;;;;;;;;15.64;80.88;98614.63;4470093;32;19995;-66
2023/04/16 09:48:51;;;;;;;;;;;;;;;15.90;78.39;98613.50;4469987;32;19976;-66
2023/04/16 09:51:18;;;;;;;;;;;;;;;15.81;84.46;98622.50;4469912;32;19992;-66
2023/04/16 09:53:45;;;;;;;;;;;;;;;15.54;79.13;98616.66;4469900;32;19986;-66
2023/04/16 09:56:13;;;;;;;;;;;;;;;15.78;82.86;98618.38;4469956;32;20437;-66
2023/04/16 09:58:40;;;;;;;;;;;;;;;15.46;86.15;98614.03;4469899;32;19976;-66
2023/04/16 10:01:08;;;;;;;;;;;;;;;15.55;85.52;98619.13;4469896;32;20314;-66
2023/04/16 10:03:37;;;;;;;;;;;;;;;15.48;82.44;98620.78;4469948;32;20047;-66
2023/04/16 10:06:18;;;;;;;;;;;;;;;15.43;82.50;98616.03;4469686;32;19980;-66
2023/04/16 10:08:49;;;;;;;;;;;;;;;15.66;80.84;98612.63;4470078;32;20007;-66
2023/04/16 10:11:17;;;;;;;;;;;;;;;15.59;79.71;98611.66;4469524;32;20341;-66
2023/04/16 10:13:44;;;;;;;;;;;;;;;15.55;81.71;98608.56;4469435;32;20020;-66
2023/04/16 10:16:12;;;;;;;;;;;;;;;15.47;82.88;98605.13;4469720;32;19992;-66
2023/04/16 10:18:40;;;;;;;;;;;;;;;15.14;84.03;98606.09;4469723;32;19984;-66
2023/04/16 10:21:10;;;;;;;;;;;;;;;14.84;83.26;98599.75;4469403;32;19980;-66
2023/04/16 10:23:38;;;;;;;;;;;;;;;14.70;85.13;98599.47;4469807;32;20048;-66
2023/04/16 10:26:06;;;;;;;;;;;;;;;14.70;84.80;98599.47;4469600;32;20322;-66
2023/04/16 10:28:34;;;;;;;;;;;;;;;15.00;84.62;98591.78;4469571;32;19972;-66
2023/04/16 10:31:02;;;;;;;;;;;;;;;15.04;83.14;98590.44;4469543;32;20360;-66
2023/04/16 10:33:36;;;;;;;;;;;;;;;14.78;83.21;98595.16;4469677;32;19981;-66
2023/04/16 10:36:11;;;;;;;;;;;;;;;14.36;87.81;98600.44;4468206;32;19994;-66
2023/04/16 10:38:40;;;;;;;;;;;;;;;14.68;88.28;98596.16;4469450;32;20387;-66
2023/04/16 10:41:08;;;;;;;;;;;;;;;15.20;85.32;98586.09;4469549;32;19980;-66
2023/04/16 10:43:40;;;;;;;;;;;;;;;15.48;81.82;98590.94;4469388;32;20033;-66
2023/04/16 10:46:20;;;;;;;;;;;;;;;15.54;80.43;98580.50;4469643;32;20008;-66
2023/04/16 10:48:48;;;;;;;;;;;;;;;15.49;80.47;98576.72;4468431;32;20329;-66
2023/04/16 10:51:24;;;;;;;;;;;;;;;14.98;79.93;98579.78;4469363;32;19977;-66
2023/04/16 10:53:57;;;;;;;;;;;;;;;15.26;80.18;98580.12;4469563;32;19988;-66
2023/04/16 10:56:26;;;;;;;;;;;;;;;15.65;79.39;98581.91;4468114;32;20054;-66
2023/04/16 10:58:56;;;;;;;;;;;;;;;16.09;76.02;98576.06;4469242;32;20390;-66
2023/04/16 11:01:33;;;;;;;;;;;;;;;16.39;76.04;98568.19;4469257;32;19980;-66
2023/04/16 11:04:01;;;;;;;;;;;;;;;16.22;74.62;98577.28;4469296;32;20004;-66
2023/04/16 11:06:30;;;;;;;;;;;;;;;16.33;79.22;98568.91;4467805;32;20018;-66
2023/04/16 11:08:58;;;;;;;;;;;;;;;16.89;72.87;98573.81;4469150;32;20026;-66
2023/04/16 11:11:25;;;;;;;;;;;;;;;17.11;74.14;98573.91;4469025;32;20032;-66
2023/04/16 11:13:53;;;;;;;;;;;;;;;16.83;68.77;98574.53;4467496;32;19992;-66
2023/04/16 11:16:21;;;;;;;;;;;;;;;16.88;69.95;98581.94;4469174;32;20734;-66
2023/04/16 11:18:48;;;;;;;;;;;;;;;16.83;68.88;98570.03;4468879;32;19999;-66
2023/04/16 11:21:18;;;;;;;;;;;;;;;16.46;68.00;98573.59;4467758;32;20037;-66
2023/04/16 11:23:46;;;;;;;;;;;;;;;16.77;67.76;98570.78;4468917;32;19984;-66
2023/04/16 11:26:27;;;;;;;;;;;;;;;16.65;66.73;98572.22;4468719;32;19994;-66
2023/04/16 11:28:55;;;;;;;;;;;;;;;16.73;64.78;98569.53;4469280;32;20029;-67
2023/04/16 11:31:22;;;;;;;;;;;;;;;16.97;66.91;98571.09;4468656;32;19988;-66
2023/04/16 11:33:50;;;;;;;;;;;;;;;16.99;70.10;98568.28;4470099;32;20527;-66
2023/04/16 11:36:17;;;;;;;;;;;;;;;16.81;68.00;98574.72;4470886;32;19988;-66
2023/04/16 11:38:45;;;;;;;;;;;;;;;16.84;69.52;98571.69;4470774;32;20672;-66
2023/04/16 11:41:18;;;;;;;;;;;;;;;16.68;69.50;98559.47;4470898;32;20026;-67
2023/04/16 11:43:45;;;;;;;;;;;;;;;16.88;68.88;98563.44;4470589;32;20385;-66
2023/04/16 11:46:13;;;;;;;;;;;;;;;16.99;70.98;98562.97;4469560;32;19980;-66
2023/04/16 11:48:54;;;;;;;;;;;;;;;16.92;66.89;98559.41;4470784;32;19990;-66
2023/04/16 11:51:22;;;;;;;;;;;;;;;17.33;67.72;98556.25;4470686;32;19997;-66
2023/04/16 11:53:51;;;;;;;;;;;;;;;17.06;65.23;98553.28;4471016;32;20314;-66
2023/04/16 11:56:27;;;;;;;;;;;;;;;17.15;67.39;98554.00;4470658;32;20051;-66
2023/04/16 11:59:07;;;;;;;;;;;;;;;17.25;66.20;98556.38;4470766;32;19998;-66
2023/04/16 12:01:36;;;;;;;;;;;;;;;17.12;65.66;98555.22;4470902;32;20051;-66
2023/04/16 12:04:03;;;;;;;;;;;;;;;17.40;64.60;98549.22;4470950;32;20021;-66
2023/04/16 12:06:31;;;;;;;;;;;;;;;17.33;64.34;98556.25;4470742;32;19988;-67
2023/04/16 12:08:59;;;;;;;;;;;;;;;17.07;60.74;98554.13;4469708;32;19979;-66
2023/04/16 12:11:37;;;;;;;;;;;;;;;17.18;63.55;98557.12;4470707;32;20035;-66
2023/04/16 12:14:11;;;;;;;;;;;;;;;16.83;62.24;98554.16;4470508;32;20027;-66
2023/04/16 12:16:39;;;;;;;;;;;;;;;16.98;63.21;98550.75;4470805;32;20011;-67
2023/04/16 12:19:06;;;;;;;;;;;;;;;17.20;65.31;98551.66;4470643;32;19964;-66
2023/04/16 12:21:40;;;;;;;;;;;;;;;17.52;62.10;98547.72;4469487;32;20320;-66
2023/04/16 12:24:08;;;;;;;;;;;;;;;17.28;61.90;98556.00;4470885;32;20332;-66
2023/04/16 12:26:43;;;;;;;;;;;;;;;17.32;63.09;98546.66;4470944;32;20390;-66
2023/04/16 12:29:29;;;;;;;;;;;;;;;17.16;64.49;98550.38;4470638;32;19964;-66
2023/04/16 12:31:56;;;;;;;;;;;;;;;16.94;64.06;98546.81;4470567;32;19973;-67
2023/04/16 12:34:24;;;;;;;;;;;;;;;17.24;64.80;98557.38;4469425;32;20309;-66
2023/04/16 12:37:13;;;;;;;;;;;;;;;17.21;63.60;98555.91;4470480;32;20317;-66
2023/04/16 12:39:41;;;;;;;;;;;;;;;16.93;63.13;98553.13;4470811;32;20465;-67
2023/04/16 12:42:10;;;;;;;;;;;;;;;16.73;63.56;98556.28;4470625;32;20339;-67
2023/04/16 12:44:37;;;;;;;;;;;;;;;16.74;63.18;98562.38;4470231;32;19994;-66
2023/04/16 12:47:05;;;;;;;;;;;;;;;16.30;65.67;98553.41;4470614;32;19979;-66
2023/04/16 12:49:32;;;;;;;;;;;;;;;15.88;66.09;98552.09;4470456;32;19980;-66
2023/04/16 12:51:59;;;;;;;;;;;;;;;15.77;65.39;98551.50;4470507;32;20051;-66